createdAt,value
2018-12-20T00:00:18.918Z,1.87
2018-12-20T00:02:48.676Z,2.03
2018-12-20T00:05:18.772Z,2.49
2018-12-20T00:07:49.794Z,2.73
2018-12-20T00:10:20.469Z,3.13
2018-12-20T00:12:50.658Z,3.15
2018-12-20T00:15:23.047Z,2.64
2018-12-20T00:17:53.992Z,2.38
2018-12-20T00:20:24.516Z,1.29
2018-12-20T00:22:55.790Z,1.04
2018-12-20T00:25:29.443Z,1.57
2018-12-20T00:28:00.074Z,1.51
2018-12-20T00:30:32.807Z,1.49
2018-12-20T00:33:04.300Z,1.82
2018-12-20T00:35:34.204Z,2.26
2018-12-20T00:38:05.642Z,2.01
2018-12-20T00:40:35.681Z,1.68
2018-12-20T00:43:05.953Z,2.08
2018-12-20T00:45:35.756Z,2.40
2018-12-20T00:48:06.843Z,2.71
2018-12-20T00:50:37.009Z,2.36
2018-12-20T00:53:12.797Z,2.30
2018-12-20T00:55:45.269Z,1.70
2018-12-20T00:58:15.480Z,1.40
2018-12-20T01:00:47.174Z,1.24
2018-12-20T01:03:20.214Z,1.30
2018-12-20T01:05:50.585Z,1.20
2018-12-20T01:08:21.909Z,1.20
2018-12-20T01:10:52.435Z,1.48
2018-12-20T01:13:22.633Z,1.62
2018-12-20T01:15:53.610Z,1.96
2018-12-20T01:18:26.434Z,2.00
2018-12-20T01:20:56.234Z,2.93
2018-12-20T01:23:28.522Z,2.17
2018-12-20T01:26:05.132Z,1.62
2018-12-20T01:28:37.612Z,1.21
2018-12-20T01:31:08.183Z,1.32
2018-12-20T01:33:38.632Z,2.15
2018-12-20T01:36:10.446Z,1.70
2018-12-20T01:38:50.150Z,1.36
2018-12-20T01:41:28.645Z,1.21
2018-12-20T01:46:39.285Z,1.94
2018-12-20T01:49:13.270Z,1.59
2018-12-20T01:51:44.395Z,2.08
2018-12-20T01:54:16.904Z,2.83
2018-12-20T01:56:48.326Z,2.55
2018-12-20T01:59:20.819Z,2.76
2018-12-20T02:01:50.597Z,2.16
2018-12-20T02:04:21.403Z,2.95
2018-12-20T02:06:58.845Z,3.08
2018-12-20T02:09:28.906Z,1.84
2018-12-20T02:12:01.503Z,1.59
2018-12-20T02:14:32.463Z,1.14
2018-12-20T02:17:06.221Z,0.98
2018-12-20T02:19:48.287Z,0.94
2018-12-20T02:22:41.171Z,1.01
2018-12-20T02:25:12.754Z,1.46
2018-12-20T02:27:48.176Z,1.11
2018-12-20T02:30:21.707Z,1.55
2018-12-20T02:32:54.790Z,2.57
2018-12-20T02:35:26.393Z,2.95
2018-12-20T02:38:03.255Z,3.28
2018-12-20T02:40:38.063Z,3.59
2018-12-20T02:43:12.880Z,3.46
2018-12-20T02:45:46.556Z,3.59
2018-12-20T02:48:20.820Z,2.98
2018-12-20T02:50:55.294Z,2.94
2018-12-20T02:53:32.179Z,3.17
2018-12-20T02:56:08.879Z,3.35
2018-12-20T02:58:39.137Z,2.82
2018-12-20T03:01:09.932Z,2.06
2018-12-20T03:03:44.496Z,1.14
2018-12-20T03:06:17.021Z,0.93
2018-12-20T03:08:53.770Z,0.70
2018-12-20T03:11:25.561Z,0.82
2018-12-20T03:13:58.259Z,0.85
2018-12-20T03:16:35.770Z,0.90
2018-12-20T03:19:11.338Z,0.64
2018-12-20T03:21:42.548Z,0.79
2018-12-20T03:24:14.827Z,0.81
2018-12-20T03:26:45.037Z,0.62
2018-12-20T03:29:18.432Z,0.55
2018-12-20T03:31:49.715Z,0.59
2018-12-20T03:34:21.585Z,0.72
2018-12-20T03:36:56.972Z,0.79
2018-12-20T03:39:33.279Z,0.88
2018-12-20T03:42:07.606Z,0.80
2018-12-20T03:44:42.126Z,0.83
2018-12-20T03:47:15.947Z,1.16
2018-12-20T03:49:52.903Z,0.93
2018-12-20T03:52:26.668Z,0.83
2018-12-20T03:54:57.927Z,0.89
2018-12-20T03:57:30.283Z,0.70
2018-12-20T04:00:05.277Z,0.75
2018-12-20T04:05:22.702Z,1.51
2018-12-20T04:07:57.088Z,2.36
2018-12-20T04:10:27.751Z,1.94
2018-12-20T04:13:04.185Z,2.19
2018-12-20T04:15:37.868Z,1.33
2018-12-20T04:18:10.960Z,0.90
2018-12-20T04:20:42.423Z,0.49
2018-12-20T04:23:15.967Z,0.62
2018-12-20T04:25:48.007Z,0.55
2018-12-20T04:28:19.030Z,0.34
2018-12-20T04:30:57.526Z,0.35
2018-12-20T04:33:28.599Z,0.34
2018-12-20T04:35:59.974Z,0.40
2018-12-20T04:38:31.494Z,0.20
2018-12-20T04:41:02.327Z,0.31
2018-12-20T04:43:32.773Z,-0.01
2018-12-20T04:46:06.787Z,0.12
2018-12-20T04:48:38.167Z,0.19
2018-12-20T04:51:09.350Z,0.15
2018-12-20T04:53:39.856Z,0.10
2018-12-20T04:56:12.332Z,0.16
2018-12-20T04:58:42.702Z,0.19
2018-12-20T05:01:15.425Z,0.04
2018-12-20T05:03:45.349Z,0.19
2018-12-20T05:06:16.154Z,0.11
2018-12-20T05:08:47.455Z,0.02
2018-12-20T05:11:18.908Z,0.05
2018-12-20T05:13:48.918Z,0.09
2018-12-20T05:16:19.064Z,0.03
2018-12-20T05:18:49.410Z,0.09
2018-12-20T05:21:21.252Z,0.59
2018-12-20T05:23:52.355Z,1.05
2018-12-20T05:26:23.016Z,1.55
2018-12-20T05:28:51.846Z,1.56
2018-12-20T05:31:24.836Z,1.58
2018-12-20T05:33:56.827Z,1.23
2018-12-20T05:36:30.140Z,0.94
2018-12-20T05:39:02.525Z,0.88
2018-12-20T05:41:33.829Z,0.45
2018-12-20T05:44:05.063Z,0.48
2018-12-20T05:46:35.186Z,0.26
2018-12-20T05:49:07.444Z,-0.12
2018-12-20T05:51:40.102Z,-0.23
2018-12-20T05:54:10.452Z,-0.23
2018-12-20T05:56:40.292Z,-0.28
2018-12-20T05:59:12.682Z,-0.44
2018-12-20T06:01:47.914Z,-0.34
2018-12-20T06:04:18.915Z,-0.45
2018-12-20T06:06:48.820Z,0.40
2018-12-20T06:09:18.782Z,0.21
2018-12-20T06:11:48.377Z,0.11
2018-12-20T06:14:18.741Z,-0.03
2018-12-20T06:16:49.519Z,-0.14
2018-12-20T06:19:19.396Z,-0.16
2018-12-20T06:21:51.571Z,-0.03
2018-12-20T06:24:27.358Z,0.14
2018-12-20T06:26:58.004Z,0.27
2018-12-20T06:29:28.001Z,0.35
2018-12-20T06:31:59.498Z,0.34
2018-12-20T06:34:29.316Z,0.14
2018-12-20T06:36:59.903Z,0.28
2018-12-20T06:39:31.046Z,0.55
2018-12-20T06:42:01.226Z,0.59
2018-12-20T06:44:31.661Z,0.61
2018-12-20T06:47:02.930Z,0.29
2018-12-20T06:49:32.935Z,0.39
2018-12-20T06:52:03.320Z,0.38
2018-12-20T06:54:33.290Z,1.23
2018-12-20T06:57:04.118Z,1.21
2018-12-20T06:59:40.371Z,0.84
2018-12-20T07:02:11.145Z,0.92
2018-12-20T07:04:42.958Z,1.96
2018-12-20T07:07:18.032Z,2.71
2018-12-20T07:09:52.782Z,3.00
2018-12-20T07:12:28.590Z,3.32
2018-12-20T07:14:59.360Z,3.28
2018-12-20T07:30:48.031Z,2.90
2018-12-20T07:33:34.861Z,2.07
2018-12-20T07:40:04.949Z,3.06
2018-12-20T07:42:37.114Z,3.15
2018-12-20T07:45:08.983Z,3.36
2018-12-20T07:47:43.965Z,3.63
2018-12-20T07:50:16.473Z,3.76
2018-12-20T07:52:50.506Z,3.87
2018-12-20T07:55:22.597Z,3.31
2018-12-20T07:57:53.390Z,3.02
2018-12-20T08:00:23.519Z,3.45
2018-12-20T08:02:54.409Z,3.53
2018-12-20T08:05:24.411Z,3.77
2018-12-20T08:07:54.469Z,3.51
2018-12-20T08:10:25.134Z,4.10
2018-12-20T08:12:55.583Z,3.23
2018-12-20T08:15:26.780Z,3.44
2018-12-20T08:17:58.457Z,3.68
2018-12-20T08:20:27.980Z,4.07
2018-12-20T08:22:59.481Z,3.70
2018-12-20T08:25:31.945Z,4.17
2018-12-20T08:28:02.788Z,4.35
2018-12-20T08:30:32.466Z,4.32
2018-12-20T08:33:02.172Z,4.35
2018-12-20T08:35:39.246Z,3.93
2018-12-20T08:38:08.831Z,4.03
2018-12-20T08:40:40.389Z,3.56
2018-12-20T08:43:11.181Z,3.50
2018-12-20T08:45:46.952Z,3.23
2018-12-20T08:48:16.799Z,2.48
2018-12-20T08:50:49.231Z,2.48
2018-12-20T08:53:25.013Z,2.25
2018-12-20T08:55:57.279Z,2.19
2018-12-20T08:58:28.239Z,2.60
2018-12-20T09:00:58.625Z,2.99
2018-12-20T09:03:28.155Z,2.73
2018-12-20T09:05:58.396Z,3.26
2018-12-20T09:08:30.375Z,2.84
2018-12-20T09:11:00.454Z,2.67
2018-12-20T09:13:30.909Z,2.78
2018-12-20T09:16:01.301Z,2.98
2018-12-20T09:18:31.337Z,2.51
2018-12-20T09:21:03.266Z,2.89
2018-12-20T09:23:33.362Z,2.55
2018-12-20T09:26:02.976Z,1.92
2018-12-20T09:28:32.639Z,2.08
2018-12-20T09:31:02.200Z,1.44
2018-12-20T09:33:32.123Z,1.65
2018-12-20T09:36:07.197Z,1.62
2018-12-20T09:38:37.452Z,1.84
2018-12-20T09:41:06.880Z,1.97
2018-12-20T09:43:36.254Z,1.64
2018-12-20T09:46:05.688Z,1.64
2018-12-20T09:48:35.474Z,2.34
2018-12-20T09:51:05.682Z,2.01
2018-12-20T09:53:35.483Z,1.85
2018-12-20T09:56:04.820Z,1.66
2018-12-20T09:58:35.763Z,1.81
2018-12-20T10:01:05.749Z,1.64
2018-12-20T10:03:35.372Z,1.56
2018-12-20T10:06:05.989Z,1.18
2018-12-20T10:08:35.545Z,1.79
2018-12-20T10:11:08.501Z,1.49
2018-12-20T10:13:39.870Z,1.96
2018-12-20T10:16:10.037Z,0.88
2018-12-20T10:18:39.519Z,1.57
2018-12-20T10:21:08.694Z,1.23
2018-12-20T10:23:38.808Z,1.24
2018-12-20T10:26:08.942Z,2.37
2018-12-20T10:28:38.800Z,2.57
2018-12-20T10:31:08.717Z,2.86
2018-12-20T10:33:38.364Z,2.70
2018-12-20T10:36:07.563Z,2.70
2018-12-20T10:38:37.295Z,2.42
2018-12-20T10:41:06.863Z,2.68
2018-12-20T10:43:36.277Z,2.78
2018-12-20T10:46:05.922Z,2.43
2018-12-20T10:48:35.250Z,1.97
2018-12-20T10:51:04.623Z,1.54
2018-12-20T10:53:34.055Z,1.82
2018-12-20T10:56:03.211Z,1.54
2018-12-20T10:58:32.413Z,1.83
2018-12-20T11:01:06.511Z,1.08
2018-12-20T11:03:40.737Z,1.33
2018-12-20T11:06:14.961Z,1.22
2018-12-20T11:09:47.743Z,1.15
2018-12-20T11:12:21.252Z,1.77
2018-12-20T11:14:50.437Z,1.34
2018-12-20T11:17:19.800Z,1.62
2018-12-20T11:19:49.157Z,1.34
2018-12-20T11:22:18.641Z,2.04
2018-12-20T11:24:47.838Z,1.67
2018-12-20T11:27:16.982Z,1.24
2018-12-20T11:29:46.284Z,1.05
2018-12-20T11:32:15.585Z,1.11
2018-12-20T11:34:45.460Z,1.41
2018-12-20T11:37:15.048Z,1.43
2018-12-20T11:39:44.350Z,2.09
2018-12-20T11:42:13.983Z,1.77
2018-12-20T11:44:43.639Z,1.39
2018-12-20T11:47:18.095Z,1.40
2018-12-20T11:49:48.376Z,1.06
2018-12-20T11:52:17.817Z,1.30
2018-12-20T11:54:47.187Z,1.57
2018-12-20T11:57:16.234Z,1.70
2018-12-20T11:59:45.312Z,1.48
2018-12-20T12:02:14.362Z,1.92
2018-12-20T12:04:43.489Z,2.22
2018-12-20T12:07:12.560Z,2.42
2018-12-20T12:09:41.744Z,2.52
2018-12-20T12:12:11.111Z,2.68
2018-12-20T12:14:40.564Z,2.69
2018-12-20T12:17:09.893Z,2.58
2018-12-20T12:19:40.147Z,2.29
2018-12-20T12:22:10.106Z,2.43
2018-12-20T12:24:39.514Z,2.39
2018-12-20T12:27:09.186Z,2.30
2018-12-20T12:29:38.607Z,2.60
2018-12-20T12:32:07.874Z,2.64
2018-12-20T12:34:43.385Z,2.59
2018-12-20T12:37:13.930Z,2.34
2018-12-20T12:39:43.027Z,1.68
2018-12-20T12:42:12.154Z,1.41
2018-12-20T12:44:41.452Z,1.49
2018-12-20T12:47:10.725Z,1.57
2018-12-20T12:49:39.766Z,1.21
2018-12-20T12:52:09.153Z,1.51
2018-12-20T12:54:38.295Z,1.38
2018-12-20T12:57:07.414Z,1.18
2018-12-20T12:59:36.622Z,1.10
2018-12-20T13:02:05.736Z,1.13
2018-12-20T13:04:35.090Z,1.18
2018-12-20T13:07:04.279Z,1.74
2018-12-20T13:09:33.626Z,1.98
2018-12-20T13:12:03.135Z,2.26
2018-12-20T13:14:32.314Z,2.33
2018-12-20T13:17:01.480Z,2.45
2018-12-20T13:19:30.520Z,2.61
2018-12-20T13:21:59.685Z,2.61
2018-12-20T13:24:28.973Z,2.67
2018-12-20T13:26:58.114Z,2.60
2018-12-20T13:29:27.649Z,2.67
2018-12-20T13:31:56.959Z,2.66
2018-12-20T13:34:26.191Z,2.64
2018-12-20T13:36:55.660Z,2.64
2018-12-20T13:39:24.921Z,2.43
2018-12-20T13:41:54.188Z,2.97
2018-12-20T13:44:23.445Z,2.74
2018-12-20T13:46:52.633Z,2.70
2018-12-20T13:49:21.954Z,2.42
2018-12-20T13:51:51.085Z,3.02
2018-12-20T13:54:21.011Z,3.83
2018-12-20T13:56:50.177Z,3.43
2018-12-20T13:59:19.422Z,2.79
2018-12-20T14:01:48.780Z,2.80
2018-12-20T14:04:18.069Z,3.07
2018-12-20T14:06:47.265Z,3.12
2018-12-20T14:09:16.634Z,3.01
2018-12-20T14:11:47.670Z,3.50
2018-12-20T14:14:17.851Z,3.24
2018-12-20T14:16:48.482Z,3.24
2018-12-20T14:19:18.508Z,3.08
2018-12-20T14:21:48.132Z,3.36
2018-12-20T14:24:17.927Z,3.52
2018-12-20T14:26:48.071Z,3.69
2018-12-20T14:29:18.488Z,3.80
2018-12-20T14:31:48.890Z,3.79
2018-12-20T14:34:20.157Z,3.90
2018-12-20T14:36:50.047Z,3.36
2018-12-20T14:39:20.225Z,3.27
2018-12-20T14:41:54.434Z,3.62
2018-12-20T14:44:24.630Z,4.11
2018-12-20T14:46:55.440Z,4.17
2018-12-20T14:49:25.677Z,3.54
2018-12-20T14:51:55.148Z,3.50
2018-12-20T14:54:27.212Z,2.89
2018-12-20T14:56:54.765Z,2.81
2018-12-20T14:59:24.962Z,2.85
2018-12-20T15:01:56.634Z,3.12
2018-12-20T15:04:27.011Z,3.34
2018-12-20T15:06:56.668Z,3.12
2018-12-20T15:09:26.467Z,3.15
2018-12-20T15:11:56.283Z,2.78
2018-12-20T15:14:27.502Z,2.80
2018-12-20T15:16:57.896Z,3.44
2018-12-20T15:19:28.090Z,3.39
2018-12-20T15:21:58.812Z,3.61
2018-12-20T15:24:29.622Z,3.70
2018-12-20T15:27:00.304Z,3.33
2018-12-20T15:29:30.744Z,3.52
2018-12-20T15:32:02.502Z,3.25
2018-12-20T15:34:32.676Z,3.61
2018-12-20T15:37:03.195Z,3.67
2018-12-20T15:39:32.795Z,3.66
2018-12-20T15:42:02.883Z,3.55
2018-12-20T15:44:31.968Z,3.50
2018-12-20T15:47:01.683Z,3.73
2018-12-20T15:49:31.298Z,3.85
2018-12-20T15:52:00.596Z,3.18
2018-12-20T15:54:29.899Z,3.20
2018-12-20T15:57:00.186Z,3.10
2018-12-20T15:59:30.529Z,2.95
2018-12-20T16:02:00.156Z,3.23
2018-12-20T16:04:29.690Z,3.08
2018-12-20T16:06:58.993Z,3.25
2018-12-20T16:09:28.710Z,3.88
2018-12-20T16:11:58.655Z,4.29
2018-12-20T16:14:28.436Z,4.11
2018-12-20T16:16:58.241Z,4.58
2018-12-20T16:19:27.514Z,4.59
2018-12-20T16:21:56.612Z,4.27
2018-12-20T16:24:27.187Z,4.71
2018-12-20T16:26:57.246Z,4.66
2018-12-20T16:29:26.994Z,4.40
2018-12-20T16:31:56.519Z,4.30
2018-12-20T16:34:27.360Z,4.23
2018-12-20T16:36:56.788Z,4.32
2018-12-20T16:39:26.495Z,3.76
2018-12-20T16:41:56.013Z,4.23
2018-12-20T16:44:28.208Z,3.14
2018-12-20T16:46:58.107Z,3.53
2018-12-20T16:49:27.238Z,4.26
2018-12-20T16:51:56.745Z,3.61
2018-12-20T16:54:26.425Z,3.35
2018-12-20T16:56:56.787Z,2.82
2018-12-20T16:59:26.090Z,2.66
2018-12-20T17:01:55.478Z,2.60
2018-12-20T17:04:24.724Z,2.90
2018-12-20T17:06:54.024Z,2.94
2018-12-20T17:09:24.176Z,2.98
2018-12-20T17:11:53.434Z,3.42
2018-12-20T17:14:24.276Z,3.50
2018-12-20T17:16:53.989Z,4.33
2018-12-20T17:19:23.259Z,4.58
2018-12-20T17:21:52.991Z,4.94
2018-12-20T17:24:22.495Z,4.74
2018-12-20T17:26:52.485Z,4.70
2018-12-20T17:29:21.834Z,4.13
2018-12-20T17:31:51.930Z,3.98
2018-12-20T17:34:22.003Z,4.17
2018-12-20T17:36:52.318Z,4.40
2018-12-20T17:39:21.784Z,4.15
2018-12-20T17:41:51.642Z,4.57
2018-12-20T17:44:21.854Z,4.07
2018-12-20T17:46:53.665Z,3.90
2018-12-20T17:49:30.579Z,3.99
2018-12-20T17:51:59.529Z,4.11
2018-12-20T17:54:29.352Z,3.86
2018-12-20T17:56:59.045Z,4.12
2018-12-20T17:59:28.960Z,3.83
2018-12-20T18:01:58.955Z,3.49
2018-12-20T18:04:28.610Z,3.72
2018-12-20T18:07:00.022Z,3.21
2018-12-20T18:09:30.148Z,3.06
2018-12-20T18:12:04.872Z,3.57
2018-12-20T18:14:34.789Z,3.55
2018-12-20T18:17:04.105Z,3.54
2018-12-20T18:19:39.005Z,3.62
2018-12-20T18:22:06.552Z,4.10
2018-12-20T18:24:37.930Z,4.12
2018-12-20T18:27:13.435Z,4.47
2018-12-20T18:29:46.328Z,4.05
2018-12-20T18:32:17.382Z,3.93
2018-12-20T18:34:49.765Z,2.86
2018-12-20T18:37:21.416Z,2.80
2018-12-20T18:39:52.567Z,3.28
2018-12-20T18:42:23.666Z,3.40
2018-12-20T18:44:55.079Z,3.86
2018-12-20T18:47:29.469Z,3.25
2018-12-20T18:50:01.016Z,2.64
2018-12-20T18:52:31.947Z,2.38
2018-12-20T18:55:02.974Z,2.33
2018-12-20T18:57:36.196Z,2.43
2018-12-20T19:00:10.020Z,3.05
2018-12-20T19:02:41.355Z,3.84
2018-12-20T19:05:15.912Z,3.47
2018-12-20T19:07:46.616Z,4.15
2018-12-20T19:10:17.511Z,4.32
2018-12-20T19:12:48.480Z,4.31
2018-12-20T19:15:18.766Z,4.17
2018-12-20T19:17:48.926Z,3.72
2018-12-20T19:20:20.802Z,4.23
2018-12-20T19:22:52.130Z,4.12
2018-12-20T19:25:23.792Z,4.57
2018-12-20T19:27:55.346Z,4.37
2018-12-20T19:30:28.380Z,4.38
2018-12-20T19:32:59.967Z,4.03
2018-12-20T19:35:30.880Z,4.39
2018-12-20T19:38:02.966Z,4.27
2018-12-20T19:40:34.450Z,4.40
2018-12-20T19:43:04.846Z,4.33
2018-12-20T19:45:45.806Z,4.38
2018-12-20T19:48:07.894Z,3.92
2018-12-20T19:50:38.665Z,3.93
2018-12-20T19:53:09.259Z,4.40
2018-12-20T19:55:39.849Z,4.10
2018-12-20T19:58:15.246Z,4.13
2018-12-20T20:00:45.733Z,3.53
2018-12-20T20:03:17.398Z,4.20
2018-12-20T20:05:48.403Z,4.50
2018-12-20T20:08:19.056Z,3.43
2018-12-20T20:10:50.033Z,2.90
2018-12-20T20:13:20.320Z,3.05
2018-12-20T20:15:51.548Z,3.50
2018-12-20T20:18:23.474Z,4.00
2018-12-20T20:20:54.695Z,4.53
2018-12-20T20:23:26.426Z,4.67
2018-12-20T20:25:56.526Z,4.68
2018-12-20T20:28:27.028Z,4.46
2018-12-20T20:30:58.691Z,3.23
2018-12-20T20:33:28.946Z,3.18
2018-12-20T20:35:59.957Z,2.92
2018-12-20T20:38:33.158Z,2.79
2018-12-20T20:41:03.992Z,2.79
2018-12-20T20:43:33.578Z,3.26
2018-12-20T20:46:03.655Z,3.70
2018-12-20T20:48:33.787Z,3.26
2018-12-20T20:51:04.525Z,3.51
2018-12-20T20:53:35.097Z,3.79
2018-12-20T20:56:06.101Z,3.41
2018-12-20T20:58:39.025Z,3.59
2018-12-20T21:01:11.174Z,3.66
2018-12-20T21:03:42.838Z,3.00
2018-12-20T21:06:14.123Z,3.61
2018-12-20T21:08:44.950Z,3.78
2018-12-20T21:11:15.791Z,3.73
2018-12-20T21:13:47.769Z,3.15
2018-12-20T21:16:20.754Z,2.87
2018-12-20T21:18:51.690Z,3.22
2018-12-20T21:21:23.239Z,3.57
2018-12-20T21:23:54.696Z,3.14
2018-12-20T21:26:24.610Z,2.94
2018-12-20T21:28:54.667Z,2.78
2018-12-20T21:31:26.893Z,2.75
2018-12-20T21:33:57.656Z,2.60
2018-12-20T21:36:28.213Z,2.46
2018-12-20T21:38:58.711Z,1.65
2018-12-20T21:41:29.993Z,1.45
2018-12-20T21:44:01.177Z,1.27
2018-12-20T21:46:32.816Z,0.97
2018-12-20T21:49:03.355Z,0.99
2018-12-20T21:51:35.708Z,1.17
2018-12-20T21:54:06.219Z,1.34
2018-12-20T21:56:36.197Z,1.28
2018-12-20T21:59:06.401Z,1.07
2018-12-20T22:01:37.200Z,1.04
2018-12-20T22:04:07.925Z,0.82
2018-12-20T22:06:38.989Z,0.83
2018-12-20T22:09:09.495Z,0.72
2018-12-20T22:11:42.971Z,0.74
2018-12-20T22:14:12.939Z,0.57
2018-12-20T22:16:43.138Z,0.55
2018-12-20T22:19:12.748Z,0.78
2018-12-20T22:21:43.554Z,0.80
2018-12-20T22:24:14.101Z,0.74
2018-12-20T22:26:44.613Z,0.88
2018-12-20T22:29:15.398Z,1.10
2018-12-20T22:31:46.713Z,0.79
2018-12-20T22:34:17.002Z,0.68
2018-12-20T22:36:47.489Z,1.03
2018-12-20T22:39:17.657Z,1.11
2018-12-20T22:41:48.044Z,0.80
2018-12-20T22:44:21.454Z,0.79
2018-12-20T22:46:51.223Z,1.47
2018-12-20T22:49:21.179Z,1.51
2018-12-20T22:51:51.239Z,1.81
2018-12-20T22:54:21.733Z,2.20
2018-12-20T22:56:51.890Z,2.28
2018-12-20T22:59:22.749Z,1.37
2018-12-20T23:01:53.010Z,1.29
2018-12-20T23:04:23.495Z,2.08
2018-12-20T23:06:53.499Z,1.89
2018-12-20T23:09:23.382Z,1.52
2018-12-20T23:11:53.307Z,2.43
2018-12-20T23:14:24.566Z,2.74
2018-12-20T23:16:54.635Z,2.89
2018-12-20T23:19:24.754Z,2.73
2018-12-20T23:22:00.218Z,3.06
2018-12-20T23:24:35.532Z,3.06
2018-12-20T23:27:05.884Z,3.47
2018-12-20T23:29:36.011Z,3.89
2018-12-20T23:32:05.859Z,3.72
2018-12-20T23:34:35.915Z,3.85
2018-12-20T23:37:06.026Z,3.65
2018-12-20T23:39:37.853Z,3.07
2018-12-20T23:42:07.792Z,3.00
2018-12-20T23:44:38.476Z,2.79
2018-12-20T23:47:09.044Z,1.90
2018-12-20T23:49:39.433Z,3.36
2018-12-20T23:52:10.874Z,3.70
2018-12-20T23:54:40.639Z,3.77
2018-12-20T23:57:12.449Z,3.62
2018-12-20T23:59:42.492Z,3.21
